Time;durP1;ratioP1;P1;durP2;ratioP2;P2;SDS_P1;SDS_P2;PMS_P1;PMS_P2;Temp;Humidity;BMP_temperature;BMP_pressure;BME280_temperature;BME280_humidity;BME280_pressure;Samples;Min_cycle;Max_cycle;Signal;HPM_P1;HPM_P2
2023/01/26 00:01:59;;;;;;;29.40;18.50;;;3.70;99.90;;;;;;6250010;28;20463;-67
2023/01/26 00:05:02;;;;;;;28.73;17.20;;;3.70;99.90;;;;;;6249107;28;20475;-66
2023/01/26 00:08:06;;;;;;;26.80;18.73;;;3.80;99.90;;;;;;6249331;28;20482;-66
2023/01/26 00:11:11;;;;;;;26.07;18.27;;;3.80;99.90;;;;;;6249541;28;20934;-67
2023/01/26 00:14:14;;;;;;;25.63;18.23;;;3.80;99.90;;;;;;6249120;28;20486;-67
2023/01/26 00:17:25;;;;;;;26.60;17.33;;;3.70;99.90;;;;;;6249645;28;20967;-67
2023/01/26 00:20:29;;;;;;;26.80;17.40;;;3.70;99.90;;;;;;6249452;28;20485;-67
2023/01/26 00:23:34;;;;;;;28.83;18.27;;;3.70;99.90;;;;;;6248923;28;20803;-67
2023/01/26 00:26:37;;;;;;;25.90;17.33;;;3.70;99.90;;;;;;6249439;28;20471;-67
2023/01/26 00:29:41;;;;;;;25.10;16.10;;;3.80;99.90;;;;;;6249204;28;20479;-67
2023/01/26 00:32:45;;;;;;;23.63;16.37;;;3.80;99.90;;;;;;6249288;28;20941;-67
2023/01/26 00:35:54;;;;;;;23.03;16.63;;;3.80;99.90;;;;;;6249076;28;20502;-68
2023/01/26 00:38:57;;;;;;;25.50;15.90;;;3.80;99.90;;;;;;6244115;28;20476;-66
2023/01/26 00:42:08;;;;;;;28.90;18.10;;;3.60;99.90;;;;;;6229278;28;20533;-67
2023/01/26 00:45:11;;;;;;;23.20;15.67;;;3.50;99.90;;;;;;6228934;28;20586;-67
2023/01/26 00:48:16;;;;;;;22.80;15.73;;;3.50;99.90;;;;;;6228648;28;20491;-66
2023/01/26 00:51:19;;;;;;;27.70;18.60;;;3.50;99.90;;;;;;6228935;28;20857;-67
2023/01/26 00:54:23;;;;;;;25.80;16.07;;;3.50;99.90;;;;;;6229272;28;20476;-67
2023/01/26 00:57:26;;;;;;;26.53;16.33;;;3.50;99.90;;;;;;6228832;28;20819;-67
2023/01/26 01:00:30;;;;;;;26.20;17.03;;;3.50;99.90;;;;;;6229036;28;20471;-66
2023/01/26 01:03:35;;;;;;;22.03;16.00;;;3.50;99.90;;;;;;6228722;28;20471;-67
2023/01/26 01:06:38;;;;;;;22.13;16.50;;;3.50;99.90;;;;;;6228905;28;20468;-67
2023/01/26 01:09:41;;;;;;;21.93;15.00;;;3.60;99.90;;;;;;6228813;28;20491;-67
2023/01/26 01:12:45;;;;;;;17.43;12.93;;;3.50;99.90;;;;;;6228155;28;21006;-67
2023/01/26 01:15:48;;;;;;;19.87;13.70;;;3.50;99.90;;;;;;6227984;28;20526;-66
2023/01/26 01:18:54;;;;;;;27.20;15.50;;;3.50;99.90;;;;;;6228031;28;20480;-66
2023/01/26 01:21:57;;;;;;;23.23;15.13;;;3.50;99.90;;;;;;6227939;28;20472;-66
2023/01/26 01:25:00;;;;;;;25.20;16.47;;;3.60;99.90;;;;;;6228399;28;20978;-66
2023/01/26 01:28:04;;;;;;;19.70;14.30;;;3.70;99.90;;;;;;6251893;28;20497;-65
2023/01/26 01:31:08;;;;;;;23.53;15.63;;;3.70;99.90;;;;;;6252583;28;20490;-66
2023/01/26 01:34:13;;;;;;;20.23;14.03;;;3.80;99.90;;;;;;6243562;28;20924;-66
2023/01/26 01:37:16;;;;;;;20.90;14.20;;;3.80;99.90;;;;;;6252514;28;20471;-66
2023/01/26 01:40:20;;;;;;;22.20;12.90;;;3.90;99.90;;;;;;6252330;28;20490;-67
2023/01/26 01:43:24;;;;;;;24.20;14.93;;;3.90;99.90;;;;;;6251586;28;20479;-67
2023/01/26 01:46:32;;;;;;;21.00;14.70;;;3.90;99.90;;;;;;6252398;28;20498;-67
2023/01/26 01:49:42;;;;;;;19.13;13.57;;;4.00;99.90;;;;;;6251967;28;20471;-68
2023/01/26 01:52:46;;;;;;;19.03;14.10;;;4.10;99.90;;;;;;6252656;28;20464;-65
2023/01/26 01:55:50;;;;;;;21.87;14.27;;;4.10;99.90;;;;;;6251501;28;20470;-66
2023/01/26 01:58:57;;;;;;;19.30;12.17;;;4.10;99.90;;;;;;6251993;28;20534;-65
2023/01/26 02:02:01;;;;;;;20.00;13.60;;;4.10;99.90;;;;;;6252216;28;21124;-66
2023/01/26 02:05:13;;;;;;;19.27;14.00;;;4.10;99.90;;;;;;6251192;28;20830;-66
2023/01/26 02:08:18;;;;;;;20.43;14.83;;;4.10;99.90;;;;;;6250826;28;20483;-65
2023/01/26 02:11:26;;;;;;;21.53;14.80;;;4.00;99.90;;;;;;6250616;28;20802;-66
2023/01/26 02:14:32;;;;;;;20.63;14.87;;;4.10;99.90;;;;;;6251145;28;20467;-66
2023/01/26 02:17:35;;;;;;;20.10;14.60;;;4.00;99.90;;;;;;6251402;28;20467;-65
2023/01/26 02:20:45;;;;;;;23.03;15.90;;;4.00;99.90;;;;;;6250708;28;20471;-65
2023/01/26 02:23:58;;;;;;;20.97;15.40;;;4.00;99.90;;;;;;6251386;28;20482;-65
2023/01/26 02:27:03;;;;;;;21.50;15.70;;;4.00;99.90;;;;;;6250583;28;20582;-65
2023/01/26 02:30:07;;;;;;;21.87;16.20;;;4.00;99.90;;;;;;6250737;28;20479;-65
2023/01/26 02:33:15;;;;;;;25.13;15.20;;;4.00;99.90;;;;;;6250621;28;20545;-65
2023/01/26 02:36:22;;;;;;;24.80;16.37;;;4.00;99.90;;;;;;6243613;28;20472;-65
2023/01/26 02:39:38;;;;;;;20.20;16.10;;;4.00;99.90;;;;;;6249992;28;20467;-65
2023/01/26 02:42:43;;;;;;;22.93;16.93;;;4.00;99.90;;;;;;6247769;28;20486;-65
2023/01/26 02:45:46;;;;;;;21.93;16.00;;;4.00;99.90;;;;;;6250579;28;20475;-65
2023/01/26 02:52:10;;;;;;;22.73;15.70;;;4.10;99.90;;;;;;6250165;28;21101;-67
2023/01/26 02:55:23;;;;;;;26.80;16.03;;;4.10;99.90;;;;;;6250682;28;20487;-66
2023/01/26 02:58:28;;;;;;;25.07;15.27;;;4.10;99.90;;;;;;6250336;28;20558;-65
2023/01/26 03:01:31;;;;;;;22.00;16.00;;;4.10;99.90;;;;;;6248334;28;20927;-65
2023/01/26 03:04:34;;;;;;;22.90;16.43;;;4.10;99.90;;;;;;6248707;28;20462;-65
2023/01/26 03:07:38;;;;;;;26.00;16.97;;;4.10;99.90;;;;;;6248195;28;20450;-66
2023/01/26 03:10:41;;;;;;;21.37;16.53;;;4.10;99.90;;;;;;6250292;28;21018;-66
2023/01/26 03:13:46;;;;;;;28.10;18.17;;;4.10;99.90;;;;;;6250059;28;20447;-66
2023/01/26 03:16:49;;;;;;;24.00;18.00;;;4.10;99.90;;;;;;6250394;28;20451;-66
2023/01/26 03:29:57;;;;;;;24.23;16.80;;;4.00;99.90;;;;;;6247259;28;20494;-67
2023/01/26 03:33:01;;;;;;;24.40;17.03;;;4.00;99.90;;;;;;6249102;28;20506;-66
2023/01/26 03:36:04;;;;;;;23.27;15.70;;;4.00;99.90;;;;;;6249748;28;20773;-66
2023/01/26 03:39:08;;;;;;;22.73;17.47;;;4.00;99.90;;;;;;6249539;28;20942;-66
2023/01/26 03:58:55;;;;;;;22.97;17.13;;;4.00;99.90;;;;;;6249733;28;20513;-65
2023/01/26 04:08:41;;;;;;;27.13;18.40;;;4.10;99.90;;;;;;6249069;28;20824;-66
2023/01/26 04:11:44;;;;;;;19.23;14.93;;;4.10;99.90;;;;;;6258745;28;20478;-67
2023/01/26 04:21:32;;;;;;;20.30;15.87;;;4.00;99.90;;;;;;6252683;28;20971;-67
2023/01/26 04:24:35;;;;;;;25.83;17.73;;;4.00;99.90;;;;;;6252547;28;20482;-67
2023/01/26 04:27:38;;;;;;;22.53;15.00;;;4.00;99.90;;;;;;6252348;28;20970;-66
2023/01/26 04:30:42;;;;;;;22.17;15.43;;;4.00;99.90;;;;;;6252923;28;20502;-67
2023/01/26 04:33:47;;;;;;;25.53;17.80;;;4.00;99.90;;;;;;6253930;28;20471;-67
2023/01/26 04:36:50;;;;;;;22.97;16.03;;;4.00;99.90;;;;;;6253709;28;20478;-66
2023/01/26 04:39:53;;;;;;;22.83;16.33;;;4.00;99.90;;;;;;6238759;28;20475;-66
2023/01/26 04:42:56;;;;;;;23.67;16.57;;;4.00;99.90;;;;;;6228872;28;20478;-67
2023/01/26 04:46:00;;;;;;;22.50;15.07;;;4.10;99.90;;;;;;6220270;28;20494;-66
2023/01/26 04:49:05;;;;;;;23.37;16.97;;;4.00;99.90;;;;;;6228772;28;20479;-66
2023/01/26 04:52:08;;;;;;;26.00;15.70;;;4.00;99.90;;;;;;6229518;28;20472;-66
2023/01/26 04:55:11;;;;;;;23.23;15.80;;;3.90;99.90;;;;;;6229043;28;20963;-67
2023/01/26 04:58:14;;;;;;;25.37;15.67;;;3.90;99.90;;;;;;6228855;28;20475;-66
2023/01/26 05:01:18;;;;;;;25.33;16.33;;;3.80;99.90;;;;;;6228917;28;20468;-67
2023/01/26 05:04:23;;;;;;;25.37;17.77;;;3.80;99.90;;;;;;6228425;28;21031;-66
2023/01/26 05:07:26;;;;;;;26.73;19.90;;;3.80;99.90;;;;;;6228719;28;20551;-66
2023/01/26 05:10:29;;;;;;;25.43;17.80;;;3.70;99.90;;;;;;6228725;28;20813;-66
2023/01/26 05:13:34;;;;;;;27.10;17.03;;;3.70;99.90;;;;;;6228026;28;20763;-66
2023/01/26 05:16:37;;;;;;;26.50;17.03;;;3.70;99.90;;;;;;6228130;28;20826;-66
2023/01/26 05:19:42;;;;;;;26.90;17.57;;;3.60;99.90;;;;;;6228536;28;20518;-66
2023/01/26 05:22:45;;;;;;;23.23;16.93;;;3.60;99.90;;;;;;6228041;28;20476;-66
2023/01/26 05:25:48;;;;;;;28.43;18.00;;;3.60;99.90;;;;;;6233352;28;20451;-67
2023/01/26 05:28:51;;;;;;;26.70;18.27;;;3.50;99.90;;;;;;6252690;28;20974;-66
2023/01/26 05:31:54;;;;;;;24.80;16.73;;;3.40;99.90;;;;;;6253034;28;20466;-66
2023/01/26 05:34:59;;;;;;;23.83;15.70;;;3.40;99.90;;;;;;6252612;28;20568;-66
2023/01/26 05:38:02;;;;;;;23.37;15.10;;;3.50;99.90;;;;;;6252747;28;20480;-66
2023/01/26 05:41:07;;;;;;;24.47;16.90;;;3.40;99.90;;;;;;6227975;28;20463;-66
2023/01/26 05:44:10;;;;;;;28.10;17.00;;;3.30;99.90;;;;;;6227641;28;20575;-66
2023/01/26 05:47:13;;;;;;;26.50;18.07;;;3.30;99.90;;;;;;6219236;28;20474;-66
2023/01/26 05:50:18;;;;;;;25.77;16.83;;;3.20;99.90;;;;;;6227642;28;20479;-66
2023/01/26 05:53:21;;;;;;;25.63;17.13;;;3.20;99.90;;;;;;6227882;28;20478;-66
2023/01/26 05:56:24;;;;;;;26.47;17.50;;;3.30;99.90;;;;;;6227461;28;20958;-66
2023/01/26 05:59:28;;;;;;;25.57;18.57;;;3.30;99.90;;;;;;6227333;28;20480;-67
2023/01/26 06:02:31;;;;;;;24.60;18.03;;;3.30;99.90;;;;;;6227528;28;20969;-67
2023/01/26 06:05:37;;;;;;;24.60;17.90;;;3.30;99.90;;;;;;6227344;28;20959;-66
2023/01/26 06:08:40;;;;;;;23.37;15.83;;;3.30;99.90;;;;;;6227385;28;20472;-67
2023/01/26 06:11:43;;;;;;;27.20;16.50;;;3.30;99.90;;;;;;6227415;28;20479;-66
2023/01/26 06:14:47;;;;;;;23.13;17.00;;;3.30;99.90;;;;;;6227102;28;20494;-66
2023/01/26 06:17:50;;;;;;;23.03;16.23;;;3.30;99.90;;;;;;6227143;28;20487;-66
2023/01/26 06:20:58;;;;;;;25.23;16.57;;;3.30;99.90;;;;;;6227165;28;20793;-66
2023/01/26 06:24:02;;;;;;;24.53;16.20;;;3.30;99.90;;;;;;6229774;28;20782;-66
2023/01/26 06:27:11;;;;;;;26.40;17.17;;;3.30;99.90;;;;;;6243324;28;20550;-66
2023/01/26 06:30:15;;;;;;;22.80;17.47;;;3.30;99.90;;;;;;6250970;28;20486;-66
2023/01/26 06:33:18;;;;;;;26.43;16.27;;;3.30;99.90;;;;;;6251332;28;20567;-66
2023/01/26 06:36:23;;;;;;;23.87;16.50;;;3.30;99.90;;;;;;6250684;28;20471;-66
2023/01/26 06:39:26;;;;;;;22.70;16.07;;;3.30;99.90;;;;;;6240117;28;20476;-66
2023/01/26 06:42:29;;;;;;;23.60;15.23;;;3.30;99.90;;;;;;6226596;28;20476;-66
2023/01/26 06:45:32;;;;;;;25.30;17.40;;;3.40;99.90;;;;;;6226366;28;20507;-66
2023/01/26 06:48:36;;;;;;;28.47;17.03;;;3.50;99.90;;;;;;6226762;28;20482;-66
2023/01/26 06:51:53;;;;;;;26.10;17.50;;;3.50;99.90;;;;;;6222029;28;20480;-66
2023/01/26 06:54:59;;;;;;;26.67;16.83;;;3.50;99.90;;;;;;6226450;28;20476;-66
2023/01/26 06:58:03;;;;;;;24.13;15.00;;;3.50;99.90;;;;;;6226215;28;20472;-66
2023/01/26 07:01:06;;;;;;;24.50;14.87;;;3.50;99.90;;;;;;6226316;28;20801;-66
2023/01/26 07:04:09;;;;;;;23.33;16.10;;;3.60;99.90;;;;;;6225227;28;20475;-66
2023/01/26 07:07:14;;;;;;;22.97;16.70;;;3.60;99.90;;;;;;6225790;28;20495;-66
2023/01/26 07:10:17;;;;;;;25.30;16.37;;;3.60;99.90;;;;;;6225632;28;20468;-66
2023/01/26 07:13:20;;;;;;;22.57;14.70;;;3.70;99.90;;;;;;6225891;28;20995;-66
2023/01/26 07:16:24;;;;;;;27.77;17.33;;;3.70;99.90;;;;;;6225912;28;20775;-66
2023/01/26 07:19:29;;;;;;;25.70;16.37;;;3.70;99.90;;;;;;6225553;28;20491;-67
2023/01/26 07:22:33;;;;;;;23.67;16.37;;;3.80;99.90;;;;;;6225186;28;20468;-66
2023/01/26 07:25:36;;;;;;;31.20;17.30;;;3.80;99.90;;;;;;6230144;28;20432;-66
2023/01/26 07:28:40;;;;;;;21.30;15.60;;;3.70;99.90;;;;;;6249907;28;20783;-65
2023/01/26 07:31:43;;;;;;;24.00;16.23;;;3.70;99.90;;;;;;6249795;28;20485;-66
2023/01/26 07:34:47;;;;;;;26.03;16.33;;;3.80;99.90;;;;;;6250021;28;20447;-66
2023/01/26 07:37:52;;;;;;;24.33;16.50;;;3.90;99.90;;;;;;6249771;28;20471;-66
2023/01/26 07:40:55;;;;;;;24.90;18.43;;;3.80;99.90;;;;;;6249832;28;20467;-66
2023/01/26 07:43:59;;;;;;;26.43;17.87;;;3.90;99.90;;;;;;6250219;28;20463;-67
2023/01/26 07:47:02;;;;;;;25.53;16.77;;;3.90;99.90;;;;;;6249517;28;20488;-67
2023/01/26 07:50:06;;;;;;;27.83;18.53;;;3.90;99.90;;;;;;6249286;28;20478;-67
2023/01/26 07:53:11;;;;;;;25.60;17.27;;;4.00;99.90;;;;;;6249167;28;20784;-66
2023/01/26 07:56:17;;;;;;;27.70;17.27;;;4.00;99.90;;;;;;6250207;28;20471;-67
2023/01/26 07:59:21;;;;;;;26.33;17.60;;;4.10;99.90;;;;;;6249498;28;20475;-66
2023/01/26 08:02:24;;;;;;;28.63;18.47;;;4.10;99.90;;;;;;6249487;28;20479;-66
2023/01/26 08:05:27;;;;;;;25.00;16.93;;;4.00;99.90;;;;;;6249603;28;20816;-67
2023/01/26 08:08:32;;;;;;;23.53;17.13;;;4.00;99.90;;;;;;6249695;28;20487;-66
2023/01/26 08:11:35;;;;;;;27.10;18.00;;;4.00;99.90;;;;;;6248698;28;20811;-67
2023/01/26 08:14:38;;;;;;;40.20;27.00;;;3.90;99.90;;;;;;6249096;28;20481;-67
2023/01/26 08:17:49;;;;;;;28.77;18.97;;;4.00;99.90;;;;;;6248204;28;21010;-66
2023/01/26 08:20:55;;;;;;;27.47;19.43;;;4.00;99.90;;;;;;6247661;28;21062;-67
2023/01/26 08:24:02;;;;;;;30.37;22.40;;;4.00;99.90;;;;;;6248827;28;20811;-67
2023/01/26 08:27:05;;;;;;;33.30;21.03;;;3.90;99.90;;;;;;6240535;28;20478;-66
2023/01/26 08:30:09;;;;;;;33.73;22.30;;;3.90;99.90;;;;;;6231436;28;20779;-66
2023/01/26 08:33:13;;;;;;;34.80;21.07;;;3.90;99.90;;;;;;6249100;28;20473;-66
2023/01/26 08:36:18;;;;;;;27.70;18.20;;;3.80;99.90;;;;;;6228474;28;20800;-67
2023/01/26 08:39:25;;;;;;;24.43;18.17;;;3.70;99.90;;;;;;6234885;28;20521;-66
2023/01/26 08:42:28;;;;;;;26.90;18.37;;;3.60;99.90;;;;;;6247181;28;20467;-67
2023/01/26 08:45:32;;;;;;;31.27;20.10;;;3.70;99.90;;;;;;6227115;28;20483;-66
2023/01/26 08:48:36;;;;;;;28.83;19.80;;;3.80;99.90;;;;;;6225629;28;20538;-66
2023/01/26 08:51:39;;;;;;;27.00;17.80;;;3.70;99.90;;;;;;6224582;28;20549;-67
2023/01/26 08:54:44;;;;;;;30.40;19.27;;;3.50;99.90;;;;;;6224175;28;20476;-66
2023/01/26 08:57:51;;;;;;;32.50;17.03;;;3.50;99.90;;;;;;6223588;28;20491;-67
2023/01/26 09:00:54;;;;;;;30.73;21.43;;;3.50;99.90;;;;;;6230906;28;20876;-67
2023/01/26 09:03:58;;;;;;;32.63;21.97;;;3.60;99.90;;;;;;6253172;28;20557;-66
2023/01/26 09:07:01;;;;;;;30.80;21.40;;;3.60;99.90;;;;;;6253062;28;20475;-66
2023/01/26 09:10:07;;;;;;;29.97;18.93;;;3.60;99.90;;;;;;6252910;28;20486;-67
2023/01/26 09:13:11;;;;;;;28.13;18.83;;;3.60;99.90;;;;;;6253849;28;20491;-67
2023/01/26 09:16:18;;;;;;;25.47;17.20;;;3.70;99.90;;;;;;6254101;28;20475;-67
2023/01/26 09:19:22;;;;;;;32.13;18.53;;;3.80;99.90;;;;;;6252171;28;20479;-66
2023/01/26 09:22:25;;;;;;;25.30;17.47;;;3.80;99.90;;;;;;6252410;28;20490;-67
2023/01/26 09:25:30;;;;;;;26.17;16.47;;;3.90;99.90;;;;;;6250430;28;20792;-67
2023/01/26 09:28:33;;;;;;;31.53;18.43;;;4.00;99.90;;;;;;6250957;28;20946;-67
2023/01/26 09:31:36;;;;;;;22.97;16.33;;;3.90;99.90;;;;;;6250735;28;20513;-67
2023/01/26 09:34:40;;;;;;;30.60;16.70;;;4.00;99.90;;;;;;6251127;28;20938;-67
2023/01/26 09:37:43;;;;;;;31.20;17.67;;;4.00;99.90;;;;;;6251320;28;20439;-67
2023/01/26 09:41:00;;;;;;;25.50;15.73;;;3.90;99.90;;;;;;6251932;28;20443;-67
2023/01/26 09:44:08;;;;;;;25.17;15.53;;;4.00;99.90;;;;;;6252633;28;20471;-67
2023/01/26 09:47:18;;;;;;;24.10;15.67;;;3.80;99.90;;;;;;6252224;28;20493;-68
2023/01/26 09:50:26;;;;;;;26.87;17.47;;;3.80;99.90;;;;;;6252011;28;20472;-67
2023/01/26 09:53:41;;;;;;;62.13;34.50;;;3.90;99.90;;;;;;6252233;28;20483;-67
2023/01/26 09:56:45;;;;;;;29.60;19.70;;;3.90;99.90;;;;;;6251934;28;20478;-67
2023/01/26 09:59:53;;;;;;;34.63;21.20;;;3.80;99.90;;;;;;6251488;28;20964;-67
2023/01/26 10:03:09;;;;;;;30.83;20.80;;;3.80;99.90;;;;;;6248073;28;20476;-66
2023/01/26 10:06:21;;;;;;;28.53;17.20;;;3.60;99.90;;;;;;6251453;28;20475;-67
2023/01/26 10:09:28;;;;;;;26.90;17.70;;;3.60;99.90;;;;;;6251257;28;20483;-66
2023/01/26 10:12:36;;;;;;;27.60;17.37;;;3.50;99.90;;;;;;6251194;28;20491;-67
2023/01/26 10:15:42;;;;;;;30.40;18.57;;;3.70;99.90;;;;;;6251410;28;20991;-67
2023/01/26 10:18:53;;;;;;;25.90;17.40;;;3.80;99.90;;;;;;6251435;28;20503;-69
2023/01/26 10:22:02;;;;;;;29.33;17.93;;;3.90;99.90;;;;;;6250990;28;20478;-66
2023/01/26 10:25:14;;;;;;;27.73;16.27;;;4.00;99.90;;;;;;6251209;28;20483;-66
2023/01/26 10:28:23;;;;;;;26.20;17.23;;;4.10;99.90;;;;;;6226494;28;20502;-66
2023/01/26 10:31:29;;;;;;;26.67;17.70;;;4.10;99.90;;;;;;6225930;28;20479;-66
2023/01/26 10:34:33;;;;;;;29.27;17.60;;;4.10;99.90;;;;;;6234027;28;20486;-66
2023/01/26 10:37:36;;;;;;;25.87;16.80;;;4.10;99.90;;;;;;6257920;28;20439;-67
2023/01/26 10:40:44;;;;;;;28.80;15.90;;;4.10;99.90;;;;;;6252090;28;20462;-66
2023/01/26 10:43:53;;;;;;;26.80;17.63;;;3.90;99.90;;;;;;6251624;28;20428;-66
2023/01/26 10:47:05;;;;;;;29.47;19.60;;;3.90;99.90;;;;;;6253690;28;20613;-66
2023/01/26 10:50:21;;;;;;;28.73;18.10;;;4.00;99.90;;;;;;6252540;28;20475;-67
2023/01/26 10:53:28;;;;;;;32.00;18.50;;;4.10;99.90;;;;;;6251339;28;20467;-67
2023/01/26 10:56:35;;;;;;;41.00;26.17;;;4.20;99.90;;;;;;6254321;28;20482;-67
2023/01/26 10:59:44;;;;;;;35.40;21.33;;;4.10;99.90;;;;;;6279022;28;20483;-65
2023/01/26 11:02:51;;;;;;;29.07;21.97;;;4.20;99.90;;;;;;6273860;28;20459;-66
2023/01/26 11:06:06;;;;;;;26.20;19.10;;;4.30;99.90;;;;;;6260969;28;20483;-66
2023/01/26 11:09:16;;;;;;;27.63;18.13;;;4.30;99.90;;;;;;6251199;28;20519;-67
2023/01/26 11:12:21;;;;;;;22.50;17.93;;;4.40;99.90;;;;;;6249624;28;20573;-67
2023/01/26 11:15:29;;;;;;;25.27;19.67;;;4.30;99.90;;;;;;6250422;28;20478;-67
2023/01/26 11:18:42;;;;;;;24.40;18.10;;;4.40;99.90;;;;;;6249329;28;20467;-67
2023/01/26 11:21:50;;;;;;;18.63;13.30;;;4.40;99.90;;;;;;6248354;28;20510;-67
2023/01/26 11:25:03;;;;;;;17.00;13.13;;;4.40;99.90;;;;;;6248413;28;20794;-67
2023/01/26 11:28:27;;;;;;;18.50;11.90;;;4.40;99.90;;;;;;6249459;28;20475;-66
2023/01/26 11:31:43;;;;;;;16.70;12.40;;;4.50;99.90;;;;;;6249316;28;20475;-66
2023/01/26 11:34:55;;;;;;;18.90;11.97;;;4.50;99.90;;;;;;6248387;28;20549;-67
2023/01/26 11:38:10;;;;;;;15.03;11.17;;;4.50;99.90;;;;;;6248939;28;20469;-66
2023/01/26 11:41:25;;;;;;;15.60;12.83;;;4.40;99.90;;;;;;6249546;28;20474;-66
2023/01/26 11:44:54;;;;;;;16.10;11.63;;;4.30;99.90;;;;;;6249615;28;20919;-66
2023/01/26 11:48:11;;;;;;;18.00;13.17;;;4.30;99.90;;;;;;6249362;28;20486;-66
2023/01/26 11:51:27;;;;;;;17.07;11.00;;;4.30;99.90;;;;;;6249488;28;20471;-66
2023/01/26 11:54:56;;;;;;;19.37;13.30;;;4.30;99.90;;;;;;6249523;28;20491;-66
2023/01/26 11:58:17;;;;;;;19.70;13.77;;;4.40;99.90;;;;;;6249127;28;20481;-66
2023/01/26 12:01:27;;;;;;;22.23;13.30;;;4.40;99.90;;;;;;6249441;28;20541;-67
2023/01/26 12:04:44;;;;;;;18.83;12.97;;;4.40;99.90;;;;;;6248719;28;20480;-66
2023/01/26 12:07:54;;;;;;;17.90;12.63;;;4.50;99.90;;;;;;6272443;28;20544;-66
2023/01/26 12:14:28;;;;;;;19.67;11.87;;;4.70;99.90;;;;;;6249382;28;20471;-66
2023/01/26 12:17:42;;;;;;;16.30;11.93;;;4.70;99.90;;;;;;6249269;28;20475;-65
2023/01/26 12:20:51;;;;;;;17.87;11.60;;;4.60;99.90;;;;;;6249374;28;20476;-66
2023/01/26 12:23:58;;;;;;;19.30;12.50;;;4.60;99.90;;;;;;6248881;28;20959;-66
2023/01/26 12:27:08;;;;;;;14.83;12.33;;;4.70;99.90;;;;;;6249203;28;20935;-67
2023/01/26 12:30:26;;;;;;;18.37;11.97;;;4.70;99.90;;;;;;6249543;28;20490;-66
2023/01/26 12:33:31;;;;;;;19.77;13.17;;;4.80;99.90;;;;;;6249367;28;20584;-67
2023/01/26 12:36:44;;;;;;;18.33;12.97;;;4.90;99.90;;;;;;6227682;28;20490;-67
2023/01/26 12:39:53;;;;;;;17.93;12.60;;;4.90;99.80;;;;;;6226766;28;20476;-67
2023/01/26 12:43:05;;;;;;;15.93;12.50;;;4.80;99.80;;;;;;6227191;28;21038;-67
2023/01/26 12:46:10;;;;;;;19.30;13.20;;;4.80;99.80;;;;;;6228903;28;20476;-67
2023/01/26 12:49:19;;;;;;;16.10;12.70;;;4.90;99.90;;;;;;6228616;28;20991;-66
2023/01/26 12:52:30;;;;;;;14.57;12.27;;;4.60;99.90;;;;;;6227627;28;20531;-66
2023/01/26 12:55:40;;;;;;;17.97;12.03;;;4.60;99.90;;;;;;6228504;28;20967;-67
2023/01/26 12:58:46;;;;;;;20.33;14.20;;;4.50;99.90;;;;;;6228083;28;20460;-66
2023/01/26 13:01:49;;;;;;;19.70;13.50;;;4.30;99.90;;;;;;6229525;28;20442;-67
2023/01/26 13:04:53;;;;;;;17.63;13.63;;;4.20;99.90;;;;;;6228220;28;20533;-67
2023/01/26 13:07:58;;;;;;;18.03;14.03;;;4.20;99.90;;;;;;6228811;28;20460;-66
2023/01/26 13:11:03;;;;;;;23.63;13.83;;;4.40;99.90;;;;;;6228462;28;21138;-67
2023/01/26 13:14:34;;;;;;;19.40;12.93;;;4.50;99.90;;;;;;6223192;28;20495;-67
2023/01/26 13:17:50;;;;;;;22.10;13.97;;;4.60;99.90;;;;;;6228349;28;20476;-66
2023/01/26 13:20:53;;;;;;;20.57;13.97;;;4.70;99.90;;;;;;6228584;28;20478;-67
2023/01/26 13:23:58;;;;;;;21.40;15.63;;;4.80;99.90;;;;;;6228009;28;20788;-67
2023/01/26 13:27:01;;;;;;;19.70;14.20;;;5.00;99.90;;;;;;6244120;28;20471;-67
2023/01/26 13:30:49;;;;;;;23.70;15.60;;;5.10;99.90;;;;;;6252377;28;20482;-66
2023/01/26 13:33:52;;;;;;;25.67;14.33;;;5.10;99.90;;;;;;6235355;28;20479;-67
2023/01/26 13:36:59;;;;;;;22.77;15.80;;;5.20;99.70;;;;;;6227658;28;20475;-67
2023/01/26 13:40:14;;;;;;;18.87;13.33;;;5.20;99.50;;;;;;6227836;28;20579;-65
2023/01/26 13:43:23;;;;;;;20.43;14.33;;;5.30;99.40;;;;;;6227904;28;20483;-66
2023/01/26 13:46:34;;;;;;;22.37;13.83;;;5.40;99.40;;;;;;6239613;28;20997;-66
2023/01/26 13:49:39;;;;;;;20.93;13.40;;;5.40;99.40;;;;;;6252258;28;20477;-66
2023/01/26 13:52:43;;;;;;;17.20;11.97;;;5.40;99.40;;;;;;6245081;28;20451;-66
2023/01/26 13:55:55;;;;;;;22.70;14.17;;;5.40;99.60;;;;;;6234628;28;20490;-66
2023/01/26 13:59:07;;;;;;;15.30;11.80;;;5.40;99.90;;;;;;6252129;28;20788;-67
2023/01/26 14:02:21;;;;;;;17.10;12.50;;;5.40;99.90;;;;;;6242775;28;20482;-67
2023/01/26 14:05:24;;;;;;;17.93;13.17;;;5.30;99.90;;;;;;6251018;28;20486;-67
2023/01/26 14:08:29;;;;;;;18.03;13.27;;;5.30;99.90;;;;;;6251330;28;20478;-67
2023/01/26 14:11:34;;;;;;;15.47;12.30;;;5.30;99.90;;;;;;6251098;28;20780;-67
2023/01/26 14:14:38;;;;;;;20.30;13.50;;;5.20;99.90;;;;;;6251494;28;20907;-67
2023/01/26 14:17:50;;;;;;;22.37;14.77;;;5.30;99.90;;;;;;6242744;28;20474;-67
2023/01/26 14:20:59;;;;;;;17.10;13.17;;;5.30;99.90;;;;;;6251593;28;20475;-67
2023/01/26 14:24:02;;;;;;;15.27;13.00;;;5.30;99.90;;;;;;6251193;28;20486;-67
2023/01/26 14:27:35;;;;;;;19.73;13.90;;;5.30;99.90;;;;;;6248384;28;20863;-67
2023/01/26 14:30:38;;;;;;;18.23;14.80;;;5.30;99.90;;;;;;6250922;28;20463;-67
2023/01/26 14:33:42;;;;;;;19.70;14.40;;;5.30;99.90;;;;;;6248507;28;20481;-68
2023/01/26 14:41:24;;;;;;;;;;;;;;;;;;;;;
2023/01/26 14:45:02;;;;;;;19.80;14.30;;;5.20;99.90;;;;;;6199980;28;20475;-67
2023/01/26 14:48:13;;;;;;;20.33;13.83;;;5.20;99.90;;;;;;6199931;28;20484;-63
2023/01/26 14:51:20;;;;;;;21.23;14.30;;;5.20;99.90;;;;;;6199971;28;20469;-63
2023/01/26 14:54:29;;;;;;;30.07;19.50;;;5.20;99.90;;;;;;6200516;28;20864;-63
2023/01/26 14:57:33;;;;;;;27.90;16.40;;;5.10;99.90;;;;;;6201924;28;20465;-64
2023/01/26 15:00:38;;;;;;;30.47;18.20;;;5.10;99.90;;;;;;6200580;28;20484;-62
2023/01/26 15:03:42;;;;;;;36.30;16.63;;;5.10;99.90;;;;;;6199836;28;20484;-63
2023/01/26 15:06:45;;;;;;;30.60;17.40;;;5.00;99.90;;;;;;6199873;28;20472;-63
2023/01/26 15:09:52;;;;;;;25.90;17.07;;;5.00;99.90;;;;;;6200100;28;20489;-62
2023/01/26 15:12:57;;;;;;;34.10;19.83;;;4.90;99.90;;;;;;6200411;28;20485;-63
2023/01/26 15:16:04;;;;;;;35.00;21.03;;;4.80;99.90;;;;;;6218138;28;20799;-63
2023/01/26 15:19:23;;;;;;;33.40;20.77;;;4.80;99.90;;;;;;6225142;28;20472;-63
2023/01/26 15:22:27;;;;;;;27.60;17.93;;;4.70;99.90;;;;;;6220683;28;20480;-63
2023/01/26 15:25:33;;;;;;;22.37;17.63;;;4.70;99.90;;;;;;6226214;28;20476;-63
2023/01/26 15:28:37;;;;;;;27.00;16.97;;;4.80;99.90;;;;;;6225627;28;20796;-64
2023/01/26 15:31:43;;;;;;;27.80;17.07;;;4.80;99.90;;;;;;6225138;28;20444;-63
2023/01/26 15:34:46;;;;;;;27.13;17.20;;;4.80;99.90;;;;;;6225240;28;20489;-63
2023/01/26 15:37:59;;;;;;;22.30;15.13;;;4.70;99.90;;;;;;6224650;28;20468;-64
2023/01/26 15:41:02;;;;;;;23.67;16.70;;;4.70;99.90;;;;;;6225864;28;20476;-63
2023/01/26 15:44:09;;;;;;;21.03;15.63;;;4.70;99.90;;;;;;6225576;28;20468;-63
2023/01/26 15:47:14;;;;;;;22.80;15.70;;;4.70;99.90;;;;;;6225396;28;20472;-63
2023/01/26 15:50:18;;;;;;;23.70;15.00;;;4.60;99.90;;;;;;6225102;28;20494;-63
2023/01/26 15:53:30;;;;;;;22.00;16.47;;;4.60;99.90;;;;;;6225042;28;20472;-63
2023/01/26 15:56:33;;;;;;;20.50;14.93;;;4.60;99.90;;;;;;6224845;28;20480;-64
2023/01/26 15:59:37;;;;;;;20.27;14.50;;;4.60;99.90;;;;;;6225036;28;20769;-64
2023/01/26 16:02:41;;;;;;;18.97;13.10;;;4.60;99.90;;;;;;6225229;28;20820;-63
2023/01/26 16:05:46;;;;;;;20.97;14.87;;;4.60;99.90;;;;;;6224929;28;20572;-63
2023/01/26 16:08:50;;;;;;;24.37;15.80;;;4.60;99.90;;;;;;6224722;28;20476;-63
2023/01/26 16:11:53;;;;;;;19.23;15.30;;;4.60;99.90;;;;;;6229830;28;20955;-63
2023/01/26 16:14:56;;;;;;;21.10;14.40;;;4.60;99.90;;;;;;6230057;28;20492;-63
2023/01/26 16:18:01;;;;;;;23.73;15.63;;;4.60;99.90;;;;;;6230255;28;20480;-63
2023/01/26 16:21:15;;;;;;;27.30;16.33;;;4.60;99.90;;;;;;6229849;28;20486;-63
2023/01/26 16:24:18;;;;;;;22.77;15.37;;;4.60;99.90;;;;;;6225411;28;20464;-63
2023/01/26 16:27:21;;;;;;;21.10;15.43;;;4.60;99.90;;;;;;6229451;28;20526;-64
2023/01/26 16:30:26;;;;;;;22.60;16.20;;;4.60;99.90;;;;;;6229369;28;20839;-63
2023/01/26 16:33:31;;;;;;;21.87;15.37;;;4.60;99.90;;;;;;6229291;28;20472;-64
2023/01/26 16:36:34;;;;;;;19.83;14.63;;;4.50;99.90;;;;;;6204919;28;20480;-63
2023/01/26 16:39:37;;;;;;;20.10;15.93;;;4.50;99.90;;;;;;6204304;28;20476;-63
2023/01/26 16:42:43;;;;;;;22.93;15.03;;;4.50;99.90;;;;;;6204953;28;20472;-63
2023/01/26 16:45:46;;;;;;;18.60;13.50;;;4.50;99.90;;;;;;6204866;28;20929;-63
2023/01/26 16:48:52;;;;;;;20.40;13.60;;;4.60;99.90;;;;;;6205165;28;20477;-64
2023/01/26 16:51:55;;;;;;;27.70;17.23;;;4.60;99.90;;;;;;6205258;28;20472;-64